Time;durP1;ratioP1;P1;durP2;ratioP2;P2;SDS_P1;SDS_P2;PMS_P1;PMS_P2;Temp;Humidity;BMP_temperature;BMP_pressure;BME280_temperature;BME280_humidity;BME280_pressure;Samples;Min_cycle;Max_cycle;Signal;HPM_P1;HPM_P2
2022/06/23 00:00:32;;;;;;;;;25.00;21.67;;;;;22.81;65.11;100566.19;5039209;28;45498;-70
2022/06/23 00:03:00;;;;;;;;;24.33;23.33;;;;;22.51;64.44;100522.81;5039506;28;45632;-70
2022/06/23 00:05:28;;;;;;;;;24.67;24.67;;;;;22.12;65.65;100449.13;5037420;28;45630;-70
2022/06/23 00:07:58;;;;;;;;;28.67;27.33;;;;;22.72;65.59;100542.13;5019302;28;46789;-70
2022/06/23 00:10:36;;;;;;;;;24.33;24.33;;;;;22.82;66.61;100549.75;5019215;28;45349;-70
2022/06/23 00:13:03;;;;;;;;;22.00;22.00;;;;;21.99;66.23;100443.81;5019547;28;45313;-73
2022/06/23 00:15:41;;;;;;;;;24.33;22.67;;;;;22.54;66.02;100536.75;5019346;28;45489;-72
2022/06/23 00:18:22;;;;;;;;;28.33;25.00;;;;;22.49;65.94;100535.78;5019052;28;46408;-71
2022/06/23 00:20:50;;;;;;;;;22.33;22.33;;;;;22.25;66.24;100492.31;5019062;28;45508;-71
2022/06/23 00:23:24;;;;;;;;;26.00;25.67;;;;;22.60;66.04;100541.25;5034492;28;45371;-71
2022/06/23 00:25:58;;;;;;;;;23.33;23.33;;;;;22.61;66.95;100558.31;5017962;28;45226;-70
2022/06/23 00:28:37;;;;;;;;;24.33;24.33;;;;;22.15;67.00;100492.81;5017406;28;48339;-70
2022/06/23 00:31:07;;;;;;;;;24.33;23.00;;;;;22.47;66.39;100546.84;5018766;28;45539;-71
2022/06/23 00:33:41;;;;;;;;;26.00;24.33;;;;;22.51;66.96;100560.75;5020207;28;45400;-71
2022/06/23 00:36:40;;;;;;;;;33.67;32.00;;;;;22.50;67.46;100551.81;5030938;28;45469;-72
2022/06/23 00:39:19;;;;;;;;;21.00;20.00;;;;;22.38;67.49;100529.22;5037103;28;48268;-71
2022/06/23 00:41:45;;;;;;;;;23.33;23.33;;;;;22.15;67.50;100475.75;5038407;28;45511;-71
2022/06/23 00:44:37;;;;;;;;;24.33;23.67;;;;;22.35;67.46;100499.88;5038702;28;45558;-70
2022/06/23 00:47:07;;;;;;;;;26.67;26.00;;;;;21.91;67.50;100427.91;4998903;28;45597;-70
2022/06/23 00:49:45;;;;;;;;;21.33;20.67;;;;;22.24;67.92;100493.38;4998880;28;45632;-72
2022/06/23 00:52:31;;;;;;;;;23.00;20.67;;;;;22.28;68.54;100504.56;4998713;28;45378;-71
2022/06/23 00:55:01;;;;;;;;;24.67;24.67;;;;;22.44;68.39;100531.03;4998782;28;45281;-71
2022/06/23 00:57:34;;;;;;;;;23.67;22.67;;;;;22.46;68.64;100526.22;4999678;28;45188;-70
2022/06/23 01:00:06;;;;;;;;;15.00;12.33;;;;;22.43;68.93;100543.75;4999504;28;46007;-72
2022/06/23 01:02:38;;;;;;;;;28.00;25.33;;;;;22.44;69.06;100531.03;5013839;28;45563;-71
2022/06/23 01:05:13;;;;;;;;;24.67;22.67;;;;;21.99;69.33;100457.38;5030994;28;45251;-74
2022/06/23 01:08:01;;;;;;;;;23.67;22.67;;;;;22.35;69.49;100508.84;5038649;28;45505;-71
2022/06/23 01:10:33;;;;;;;;;22.67;22.67;;;;;22.40;69.79;100521.69;5038283;28;46780;-72
2022/06/23 01:13:14;;;;;;;;;22.67;22.67;;;;;22.03;69.53;100464.00;5038237;28;45589;-70
2022/06/23 01:15:57;;;;;;;;;25.33;21.67;;;;;22.14;69.32;100476.81;5038261;28;45255;-71
2022/06/23 01:18:31;;;;;;;;;22.33;21.33;;;;;22.38;68.92;100521.09;5038197;28;45497;-70
2022/06/23 01:21:15;;;;;;;;;24.33;21.67;;;;;22.34;68.42;100519.91;5037848;28;46625;-70
2022/06/23 01:24:01;;;;;;;;;25.33;24.33;;;;;22.32;68.33;100528.25;5037843;28;45288;-70
2022/06/23 01:26:27;;;;;;;;;27.67;27.67;;;;;22.27;67.98;100530.00;5036775;28;45400;-71
2022/06/23 01:29:01;;;;;;;;;25.67;24.33;;;;;22.13;68.22;100518.47;5048714;28;45486;-70
2022/06/23 01:31:37;;;;;;;;;28.00;26.67;;;;;;;;5033238;28;46673;-70
2022/06/23 01:34:21;;;;;;;;;32.67;31.00;;;;;22.02;68.70;100528.13;5038025;28;45269;-70
2022/06/23 01:36:54;;;;;;;;;25.33;25.00;;;;;21.94;68.84;100512.19;5038355;28;45386;-71
2022/06/23 01:39:46;;;;;;;;;24.00;24.00;;;;;21.99;69.12;100528.56;5038017;28;45330;-70
2022/06/23 01:42:24;;;;;;;;;30.00;29.00;;;;;22.06;68.89;100520.44;5037566;28;46772;-72
2022/06/23 01:44:51;;;;;;;;;30.33;27.00;;;;;22.11;68.52;100520.59;5037603;28;45248;-71
2022/06/23 01:47:24;;;;;;;;;26.33;26.33;;;;;22.08;69.07;100521.03;5038006;28;45476;-71
2022/06/23 01:49:55;;;;;;;;;24.00;23.67;;;;;21.95;68.69;100505.72;5038112;28;45327;-71
2022/06/23 01:52:21;;;;;;;;;28.00;28.00;;;;;21.88;68.81;100499.56;5037698;28;46055;-71
2022/06/23 01:54:56;;;;;;;;;30.33;27.67;;;;;21.82;68.74;100484.19;5037705;28;45322;-70
2022/06/23 01:57:33;;;;;;;;;31.67;28.00;;;;;22.09;68.83;100520.81;5039188;28;45285;-72
2022/06/23 02:00:18;;;;;;;;;25.33;24.67;;;;;21.70;68.42;100456.22;5024065;28;45451;-71
2022/06/23 02:02:52;;;;;;;;;32.33;30.00;;;;;22.21;67.65;100517.34;5018541;28;46679;-72
2022/06/23 02:05:43;;;;;;;;;28.67;27.00;;;;;22.20;67.76;100518.38;5017036;28;45514;-70
2022/06/23 02:08:31;;;;;;;;;29.67;28.67;;;;;22.26;68.16;100517.50;5017647;28;45395;-71
2022/06/23 02:11:12;;;;;;;;;28.67;27.00;;;;;21.65;67.50;100412.78;5016458;28;45360;-71
2022/06/23 02:14:01;;;;;;;;;32.00;31.00;;;;;22.26;67.82;100512.09;5016049;28;47876;-70
2022/06/23 02:16:44;;;;;;;;;27.33;26.00;;;;;22.23;67.46;100509.84;5017412;28;45529;-72
2022/06/23 02:19:48;;;;;;;;;28.00;28.00;;;;;22.24;67.40;100514.19;5017464;28;45540;-71
2022/06/23 02:22:29;;;;;;;;;29.00;28.00;;;;;21.98;67.90;100471.94;5015114;28;45309;-72
2022/06/23 02:25:03;;;;;;;;;28.00;26.67;;;;;22.19;67.96;100509.44;5016800;28;46594;-71
2022/06/23 02:27:43;;;;;;;;;29.50;27.50;;;;;22.13;67.99;100513.88;5017852;28;45489;-69
2022/06/23 02:30:18;;;;;;;;;31.67;27.67;;;;;22.10;68.17;100502.69;5035215;28;45466;-72
2022/06/23 02:33:10;;;;;;;;;22.33;19.67;;;;;22.05;69.16;100505.25;5037240;28;45325;-71
2022/06/23 02:35:51;;;;;;;;;28.00;27.33;;;;;21.99;68.95;100487.13;5036869;28;45268;-71
2022/06/23 02:38:23;;;;;;;;;30.67;29.33;;;;;22.12;69.03;100503.28;5036872;28;45317;-72
2022/06/23 02:41:10;;;;;;;;;28.00;24.00;;;;;22.02;69.10;100473.16;5037101;28;45300;-70
2022/06/23 02:43:50;;;;;;;;;26.67;22.67;;;;;21.01;68.93;100314.78;5051879;28;45346;-71
2022/06/23 02:46:37;;;;;;;;;15.00;14.67;;;;;22.17;69.39;100506.97;5036677;28;46609;-70
2022/06/23 02:49:37;;;;;;;;;11.00;10.33;;;;;22.11;69.60;100505.16;5036841;28;45270;-71
2022/06/23 02:52:36;;;;;;;;;11.00;6.67;;;;;22.11;69.09;100505.16;5036873;28;45324;-72
2022/06/23 02:55:19;;;;;;;;;6.67;6.33;;;;;22.11;69.08;100509.75;5037581;28;45360;-72
2022/06/23 02:58:18;;;;;;;;;6.00;6.00;;;;;22.13;68.96;100508.47;5036836;28;46525;-71
2022/06/23 03:01:00;;;;;;;;;5.00;5.00;;;;;21.31;68.37;100379.84;5036835;28;45468;-73
2022/06/23 03:03:45;;;;;;;;;7.00;5.33;;;;;21.25;68.36;100383.44;5037181;28;45308;-71
2022/06/23 03:06:22;;;;;;;;;5.00;5.00;;;;;22.02;68.03;100517.28;5036982;28;45384;-71
2022/06/23 03:09:07;;;;;;;;;4.67;4.67;;;;;21.59;67.81;100452.38;5036099;28;46522;-71
2022/06/23 03:11:52;;;;;;;;;4.00;4.00;;;;;21.96;67.16;100534.44;5052128;28;45704;-73
2022/06/23 03:14:31;;;;;;;;;6.00;4.67;;;;;21.88;67.16;100531.22;5020131;28;45491;-73
2022/06/23 03:17:25;;;;;;;;;3.67;3.67;;;;;21.81;67.18;100528.53;5037263;28;45384;-72
2022/06/23 03:20:13;;;;;;;;;6.67;4.00;;;;;21.77;67.37;100535.47;5038487;28;48651;-72
2022/06/23 03:23:00;;;;;;;;;5.33;3.00;;;;;21.75;67.24;100527.56;5038464;28;45430;-70
2022/06/23 03:26:01;;;;;;;;;4.00;3.33;;;;;21.52;67.17;100495.72;5040111;28;45270;-72
2022/06/23 03:28:35;;;;;;;;;5.00;4.00;;;;;21.79;66.86;100536.88;5042128;28;45697;-70
2022/06/23 03:31:29;;;;;;;;;4.00;4.00;;;;;21.78;67.08;100537.13;5039727;28;45600;-70
2022/06/23 03:34:12;;;;;;;;;3.00;3.00;;;;;21.46;66.98;100485.81;5040005;28;45316;-70
2022/06/23 03:36:49;;;;;;;;;4.67;4.67;;;;;21.69;67.09;100539.28;5039969;28;45612;-73
2022/06/23 03:42:17;;;;;;;;;4.33;4.33;;;;;21.59;67.19;100540.81;5031705;28;45781;-70
2022/06/23 03:44:53;;;;;;;;;4.33;4.00;;;;;21.67;67.30;100564.91;5018172;28;46171;-70
2022/06/23 03:47:28;;;;;;;;;8.33;7.33;;;;;21.64;67.18;100568.06;5020013;28;45559;-71
2022/06/23 03:50:04;;;;;;;;;5.00;5.00;;;;;21.63;67.25;100574.53;5020148;28;45390;-72
2022/06/23 03:52:40;;;;;;;;;4.00;4.00;;;;;21.67;67.10;100570.31;5019550;28;46891;-72
2022/06/23 03:55:30;;;;;;;;;5.33;4.00;;;;;20.02;66.66;100304.72;5019629;28;45377;-70
2022/06/23 03:58:03;;;;;;;;;3.67;3.00;;;;;21.66;66.61;100579.50;5019691;28;45382;-70
2022/06/23 04:00:37;;;;;;;;;4.33;4.33;;;;;21.63;66.83;100574.53;5018412;28;45266;-70
2022/06/23 04:03:21;;;;;;;;;5.00;5.00;;;;;21.63;66.87;100582.63;5018068;28;47918;-71
2022/06/23 04:05:55;;;;;;;;;6.00;4.00;;;;;21.64;66.50;100584.31;5019729;28;45374;-70
2022/06/23 04:08:24;;;;;;;;;6.00;6.00;;;;;21.49;66.56;100554.84;5018035;28;45483;-72
2022/06/23 04:10:54;;;;;;;;;5.00;5.00;;;;;21.64;66.50;100581.59;5018189;28;45210;-72
2022/06/23 04:13:28;;;;;;;;;6.00;5.00;;;;;21.62;66.58;100589.06;5019300;28;45486;-71
2022/06/23 04:16:00;;;;;;;;;5.00;4.33;;;;;21.61;66.63;100585.53;5034243;28;45396;-71
2022/06/23 04:18:30;;;;;;;;;6.67;4.33;;;;;21.62;66.52;100598.00;5019018;28;45349;-71
2022/06/23 04:21:01;;;;;;;;;4.33;3.00;;;;;21.26;66.37;100541.91;5026795;28;45412;-72
2022/06/23 04:23:34;;;;;;;;;4.67;4.67;;;;;20.70;66.51;100452.66;5038619;28;46662;-72
2022/06/23 04:26:05;;;;;;;;;3.00;3.00;;;;;21.54;66.63;100591.00;5039040;28;45225;-70
2022/06/23 04:28:55;;;;;;;;;5.00;3.00;;;;;21.51;66.85;100596.88;5022879;28;45502;-72
2022/06/23 04:31:29;;;;;;;;;3.67;3.67;;;;;21.51;66.96;100604.97;5019779;28;45436;-72
2022/06/23 04:33:55;;;;;;;;;4.00;2.00;;;;;21.39;67.04;100586.97;5018750;28;46341;-73
2022/06/23 04:36:25;;;;;;;;;3.67;3.67;;;;;21.38;67.21;100594.25;5017286;28;45234;-71
2022/06/23 04:38:57;;;;;;;;;4.00;4.00;;;;;21.44;66.87;100596.09;5017452;28;45514;-71
2022/06/23 04:41:33;;;;;;;;;3.00;3.00;;;;;20.77;66.91;100473.16;5032829;28;45300;-71
2022/06/23 04:44:05;;;;;;;;;4.00;4.00;;;;;21.53;67.21;100600.19;5038459;28;46794;-72
2022/06/23 04:46:40;;;;;;;;;5.00;5.00;;;;;21.51;67.00;100593.31;5038568;28;45495;-71
2022/06/23 04:49:19;;;;;;;;;8.00;5.00;;;;;21.42;67.54;100592.75;5039193;28;45284;-71
2022/06/23 04:51:52;;;;;;;;;2.00;2.00;;;;;21.50;67.29;100610.59;5035743;28;45582;-72
2022/06/23 04:54:23;;;;;;;;;4.00;3.00;;;;;21.09;66.74;100540.75;5035720;28;47696;-72
2022/06/23 04:56:57;;;;;;;;;3.00;3.00;;;;;21.48;66.63;100610.84;5018579;28;45198;-72
2022/06/23 04:59:43;;;;;;;;;5.00;5.00;;;;;21.54;66.58;100604.53;5018824;28;46264;-70
2022/06/23 05:02:33;;;;;;;;;6.00;6.00;;;;;21.54;66.48;100607.25;5017421;28;45496;-73
2022/06/23 05:05:08;;;;;;;;;5.00;4.00;;;;;21.57;66.55;100597.84;5018998;28;45655;-73
2022/06/23 05:07:48;;;;;;;;;6.00;4.33;;;;;21.59;66.53;100603.03;5018639;28;45296;-74
2022/06/23 05:10:27;;;;;;;;;5.33;5.00;;;;;21.61;66.47;100612.59;5022426;28;45867;-72
2022/06/23 05:12:58;;;;;;;;;5.00;4.00;;;;;21.59;66.20;100600.34;5038561;28;45329;-72
2022/06/23 05:15:44;;;;;;;;;4.67;4.67;;;;;21.63;66.04;100617.81;5053244;28;45373;-71
2022/06/23 05:18:14;;;;;;;;;4.00;4.00;;;;;21.18;66.00;100542.13;5035334;28;45492;-71
2022/06/23 05:20:39;;;;;;;;;7.00;4.00;;;;;21.69;65.94;100617.75;5019234;28;45489;-71
2022/06/23 05:23:06;;;;;;;;;5.00;5.00;;;;;21.04;65.84;100505.44;5053470;28;45502;-71
2022/06/23 05:25:40;;;;;;;;;5.00;5.00;;;;;21.50;65.54;100589.78;5037926;28;45622;-71
2022/06/23 05:28:12;;;;;;;;;4.33;4.33;;;;;21.51;65.46;100582.50;5038064;28;45422;-72
2022/06/23 05:31:07;;;;;;;;;3.67;3.00;;;;;21.20;65.00;100537.34;5031115;28;45682;-72
2022/06/23 05:33:46;;;;;;;;;3.33;2.67;;;;;21.23;65.11;100534.22;5052693;28;45279;-73
2022/06/23 05:36:24;;;;;;;;;2.00;2.00;;;;;21.23;64.63;100507.19;5037734;28;45609;-72
2022/06/23 05:39:05;;;;;;;;;3.00;3.00;;;;;22.06;63.88;100617.91;5032191;28;45289;-73
2022/06/23 05:41:37;;;;;;;;;5.33;5.33;;;;;22.17;63.21;100615.28;5016274;28;45478;-72
2022/06/23 05:44:16;;;;;;;;;6.00;6.00;;;;;21.55;62.78;100500.69;5016104;28;45519;-73
2022/06/23 05:46:42;;;;;;;;;7.67;4.33;;;;;22.26;61.85;100626.66;5015924;28;47846;-72
2022/06/23 05:49:20;;;;;;;;;6.00;5.00;;;;;22.21;61.88;100590.44;5017224;28;45368;-73
2022/06/23 05:52:06;;;;;;;;;7.00;5.33;;;;;22.38;61.40;100608.59;5015652;28;45503;-71
2022/06/23 05:54:46;;;;;;;;;5.67;5.00;;;;;22.57;60.41;100612.16;5017510;28;45467;-73
2022/06/23 05:57:24;;;;;;;;;7.67;5.00;;;;;22.46;59.20;100542.47;5020718;28;45973;-72
2022/06/23 06:00:10;;;;;;;;;10.33;7.67;;;;;23.10;59.05;100600.69;5017365;28;45506;-71
2022/06/23 06:02:42;;;;;;;;;7.33;7.00;;;;;22.29;58.47;100425.78;5017315;28;45467;-72
2022/06/23 06:05:35;;;;;;;;;9.00;8.00;;;;;23.66;58.15;100594.03;5017244;28;45541;-71
2022/06/23 06:08:06;;;;;;;;;5.67;5.67;;;;;24.12;56.86;100605.97;5017194;28;46538;-70
2022/06/23 06:10:34;;;;;;;;;7.00;6.00;;;;;24.57;55.76;100612.47;5017196;28;45273;-74
2022/06/23 06:13:02;;;;;;;;;6.33;6.33;;;;;24.88;54.20;100596.78;5017123;28;45331;-72
2022/06/23 06:15:38;;;;;;;;;13.00;9.00;;;;;25.08;53.13;100608.09;5039933;28;45268;-73
2022/06/23 06:18:07;;;;;;;;;8.00;6.67;;;;;25.33;53.11;100612.34;5019242;28;46481;-74
2022/06/23 06:20:35;;;;;;;;;7.00;6.33;;;;;25.46;52.11;100603.91;5017045;28;45301;-73
2022/06/23 06:23:32;;;;;;;;;20.33;20.00;;;;;25.67;51.41;100597.75;5015922;28;45504;-73
2022/06/23 06:25:58;;;;;;;;;7.33;6.00;;;;;25.61;51.17;100574.19;5015834;28;45566;-72
2022/06/23 06:28:29;;;;;;;;;7.00;7.00;;;;;25.86;50.83;100602.97;5016762;28;46568;-71
2022/06/23 06:31:12;;;;;;;;;6.33;5.33;;;;;24.90;50.10;100425.22;5020683;28;45353;-72
2022/06/23 06:33:51;;;;;;;;;7.00;7.00;;;;;25.68;50.06;100515.00;5016857;28;45575;-71
2022/06/23 06:36:31;;;;;;;;;7.67;7.67;;;;;26.09;49.82;100542.84;5016602;28;45237;-71
2022/06/23 06:39:04;;;;;;;;;7.00;5.33;;;;;25.95;48.60;100492.50;5016186;28;46505;-74
2022/06/23 06:41:30;;;;;;;;;5.67;5.67;;;;;26.64;48.60;100566.47;5016447;28;45330;-72
2022/06/23 06:43:57;;;;;;;;;7.00;7.00;;;;;26.76;47.72;100553.50;5015866;28;45223;-73
2022/06/23 06:46:23;;;;;;;;;5.67;5.67;;;;;26.95;46.96;100552.09;5015491;28;45537;-72
2022/06/23 06:48:48;;;;;;;;;4.00;4.00;;;;;27.42;46.67;100599.78;5016707;28;45794;-72
2022/06/23 06:51:23;;;;;;;;;6.67;6.67;;;;;27.21;45.39;100550.47;5016245;28;45569;-71
2022/06/23 06:53:57;;;;;;;;;6.00;6.00;;;;;27.26;45.00;100536.06;5038352;28;45463;-72
2022/06/23 06:56:33;;;;;;;;;7.33;6.00;;;;;27.70;44.83;100594.09;5017223;28;45614;-72
2022/06/23 06:59:17;;;;;;;;;6.33;5.33;;;;;27.91;43.92;100608.72;5024131;28;48509;-74
2022/06/23 07:01:49;;;;;;;;;6.33;5.67;;;;;28.13;44.04;100608.59;5026808;28;45645;-72
2022/06/23 07:04:21;;;;;;;;;5.00;5.00;;;;;28.13;42.80;100612.16;5026935;28;45459;-74
2022/06/23 07:06:58;;;;;;;;;7.67;6.67;;;;;27.46;42.91;100489.81;5023404;28;45435;-74
2022/06/23 07:09:45;;;;;;;;;6.33;6.00;;;;;28.41;43.21;100601.94;5023411;28;45939;-71
2022/06/23 07:12:18;;;;;;;;;4.33;4.33;;;;;28.44;42.26;100568.63;5023263;28;45601;-73
2022/06/23 07:14:53;;;;;;;;;6.00;6.00;;;;;28.76;41.50;100593.91;5038329;28;45361;-72
2022/06/23 07:17:43;;;;;;;;;7.00;6.00;;;;;28.94;40.80;100605.50;5023327;28;45332;-72
2022/06/23 07:20:38;;;;;;;;;6.33;5.00;;;;;29.06;40.63;100619.78;5022672;28;45587;-72
2022/06/23 07:23:25;;;;;;;;;5.00;5.00;;;;;29.08;40.31;100612.13;5029504;28;45469;-74
2022/06/23 07:25:57;;;;;;;;;5.00;5.00;;;;;27.41;40.49;100325.13;5043055;28;45291;-75
2022/06/23 07:28:29;;;;;;;;;5.00;5.00;;;;;29.32;40.10;100601.47;5035786;28;45249;-73
2022/06/23 07:31:04;;;;;;;;;6.00;6.00;;;;;29.12;40.34;100552.16;5020630;28;46139;-73
2022/06/23 07:33:40;;;;;;;;;7.33;6.00;;;;;29.65;40.69;100617.44;5022930;28;45220;-73
2022/06/23 07:36:16;;;;;;;;;7.00;6.00;;;;;29.82;40.15;100614.41;5038001;28;45405;-73
2022/06/23 07:39:10;;;;;;;;;9.33;8.00;;;;;29.67;38.96;100548.66;5021753;28;45486;-75
2022/06/23 07:41:46;;;;;;;;;5.33;5.00;;;;;30.24;38.54;100614.13;5037913;28;46024;-72
2022/06/23 07:44:22;;;;;;;;;5.33;5.33;;;;;30.47;38.83;100625.59;5022289;28;45813;-70
2022/06/23 07:46:48;;;;;;;;;7.00;7.00;;;;;30.59;38.77;100599.47;5019526;28;45504;-70
2022/06/23 07:49:14;;;;;;;;;8.00;7.33;;;;;30.82;38.22;100614.47;5022802;28;45316;-72
2022/06/23 07:51:41;;;;;;;;;5.67;5.67;;;;;31.12;37.67;100621.75;5018869;28;47448;-72
2022/06/23 07:54:14;;;;;;;;;5.67;5.67;;;;;31.33;37.28;100614.22;5037265;28;45540;-71
2022/06/23 07:56:39;;;;;;;;;5.00;5.00;;;;;31.06;37.05;100542.44;5020821;28;45445;-72
2022/06/23 07:59:10;;;;;;;;;7.67;7.67;;;;;31.12;37.14;100517.41;5021931;28;45483;-72
2022/06/23 08:01:57;;;;;;;;;9.00;9.00;;;;;32.01;36.07;100618.91;5022397;28;46622;-71
2022/06/23 08:04:31;;;;;;;;;7.67;7.67;;;;;32.17;35.49;100617.66;5018692;28;45344;-72
2022/06/23 08:07:02;;;;;;;;;4.00;4.00;;;;;32.30;34.78;100617.03;5018934;28;45368;-72
2022/06/23 08:09:50;;;;;;;;;6.00;6.00;;;;;32.37;34.28;100622.97;5019406;28;45483;-73
2022/06/23 08:18:15;;;;;;;;;6.00;5.00;;;;;33.18;32.73;100614.81;5019559;28;45379;-73
2022/06/23 08:20:47;;;;;;;;;6.00;4.67;;;;;33.18;33.11;100599.09;5019587;28;45548;-73
2022/06/23 08:23:14;;;;;;;;;4.33;4.33;;;;;33.50;32.02;100606.66;5015627;28;46651;-73
2022/06/23 08:25:41;;;;;;;;;7.00;5.33;;;;;33.79;31.97;100600.09;5018524;28;45368;-73
2022/06/23 08:28:07;;;;;;;;;5.00;5.00;;;;;33.44;31.55;100529.84;5019285;28;45520;-73
2022/06/23 08:30:36;;;;;;;;;8.33;5.00;;;;;34.02;31.31;100601.09;5029427;28;45519;-75
2022/06/23 08:33:03;;;;;;;;;7.00;5.00;;;;;34.08;31.13;100611.75;5007856;28;45800;-71
2022/06/23 08:35:36;;;;;;;;;5.33;5.33;;;;;34.15;30.72;100592.03;5026902;28;45474;-71
2022/06/23 08:38:05;;;;;;;;;7.67;5.00;;;;;34.32;31.12;100621.78;5022158;28;45474;-72
2022/06/23 08:40:48;;;;;;;;;5.33;5.33;;;;;34.43;29.83;100601.16;5018057;28;45440;-73
2022/06/23 08:43:35;;;;;;;;;4.67;4.67;;;;;34.44;30.27;100611.91;5021149;28;45755;-73
2022/06/23 08:46:20;;;;;;;;;4.67;4.33;;;;;34.68;30.05;100613.66;5021602;28;45677;-72
2022/06/23 08:49:05;;;;;;;;;4.67;4.67;;;;;35.03;29.36;100609.28;5022394;28;45486;-73
2022/06/23 08:51:40;;;;;;;;;4.33;4.33;;;;;35.12;29.46;100612.16;5017888;28;45237;-73
2022/06/23 08:54:34;;;;;;;;;5.00;4.00;;;;;35.12;29.30;100609.41;5017829;28;45522;-73
2022/06/23 08:57:16;;;;;;;;;5.67;4.33;;;;;35.29;29.00;100607.59;5017637;28;45518;-72
2022/06/23 09:00:03;;;;;;;;;8.67;6.33;;;;;35.43;29.11;100609.50;5017858;28;45194;-72
2022/06/23 09:02:38;;;;;;;;;5.33;5.33;;;;;35.55;28.70;100610.59;5018474;28;45979;-76
2022/06/23 09:05:10;;;;;;;;;5.00;5.00;;;;;35.78;27.93;100624.41;5017375;28;45813;-72
2022/06/23 09:07:36;;;;;;;;;4.00;4.00;;;;;36.20;27.48;100606.44;5029017;28;45488;-73
2022/06/23 09:10:24;;;;;;;;;6.00;5.00;;;;;36.40;26.66;100561.59;5014073;28;45443;-78
2022/06/23 09:13:02;;;;;;;;;4.67;4.67;;;;;37.39;25.95;100606.25;5011418;28;46058;-73
2022/06/23 09:16:05;;;;;;;;;5.00;5.00;;;;;38.01;25.19;100600.28;5028174;28;47473;-72
2022/06/23 09:18:36;;;;;;;;;4.67;4.67;;;;;38.93;24.75;100603.31;5016085;28;45270;-76
2022/06/23 09:21:27;;;;;;;;;7.00;7.00;;;;;39.52;23.47;100537.25;5019335;28;45497;-72
2022/06/23 09:24:24;;;;;;;;;3.00;3.00;;;;;40.82;21.98;100557.06;5030418;28;45411;-73
2022/06/23 09:26:59;;;;;;;;;3.33;3.33;;;;;42.05;20.94;100594.41;5017748;28;46565;-73
2022/06/23 09:29:30;;;;;;;;;4.00;4.00;;;;;43.10;19.59;100587.00;5017736;28;45369;-73
2022/06/23 09:31:59;;;;;;;;;6.00;6.00;;;;;43.85;18.88;100590.47;5032966;28;45174;-71
2022/06/23 09:34:36;;;;;;;;;6.00;5.00;;;;;44.57;17.67;100574.50;5016121;28;45307;-73
2022/06/23 09:37:21;;;;;;;;;6.67;5.33;;;;;44.99;16.62;100548.22;5017426;28;46317;-74
2022/06/23 09:40:02;;;;;;;;;2.33;2.33;;;;;45.54;16.48;100572.94;5017324;28;45690;-75
2022/06/23 09:43:06;;;;;;;;;4.33;4.33;;;;;45.74;16.65;100583.59;5016863;28;45495;-74
2022/06/23 09:45:37;;;;;;;;;6.00;4.67;;;;;46.12;16.42;100586.38;5015421;28;45191;-74
2022/06/23 09:48:23;;;;;;;;;4.00;4.00;;;;;46.26;15.33;100558.38;5032564;28;47595;-73
2022/06/23 09:51:19;;;;;;;;;5.00;5.00;;;;;46.28;15.50;100584.09;5031133;28;45645;-74
2022/06/23 09:54:02;;;;;;;;;4.33;4.33;;;;;45.97;15.67;100586.22;5019190;28;45278;-71
2022/06/23 09:56:54;;;;;;;;;6.00;6.00;;;;;45.89;16.14;100580.94;5019717;28;45617;-71
2022/06/23 09:59:28;;;;;;;;;4.00;3.67;;;;;45.69;15.73;100588.78;5008498;28;45669;-73
2022/06/23 10:02:09;;;;;;;;;6.33;4.00;;;;;45.34;15.78;100552.66;5033865;28;45475;-71
2022/06/23 10:04:57;;;;;;;;;4.33;4.33;;;;;45.29;16.35;100581.09;5036954;28;45236;-75
2022/06/23 10:07:41;;;;;;;;;4.00;4.00;;;;;44.62;16.97;100573.34;5021984;28;45452;-73
2022/06/23 10:10:41;;;;;;;;;5.67;5.67;;;;;42.91;17.82;100581.38;5036827;28;46147;-73
2022/06/23 10:13:33;;;;;;;;;6.00;4.67;;;;;41.15;20.05;100563.22;5021698;28;45302;-74
2022/06/23 10:16:26;;;;;;;;;5.33;4.33;;;;;39.76;21.25;100569.06;5014806;28;45876;-73
2022/06/23 10:19:04;;;;;;;;;5.67;5.67;;;;;38.64;22.91;100579.13;5016258;28;45365;-73
2022/06/23 10:21:51;;;;;;;;;7.67;7.67;;;;;37.61;23.91;100563.66;5015147;28;47124;-75
2022/06/23 10:24:48;;;;;;;;;7.00;7.00;;;;;36.23;25.06;100470.16;5014076;28;45521;-74
2022/06/23 10:27:58;;;;;;;;;7.00;7.00;;;;;36.16;25.26;100572.22;5032079;28;45451;-73
2022/06/23 10:30:55;;;;;;;;;6.00;6.00;;;;;35.54;26.33;100581.31;5024641;28;45543;-73
2022/06/23 10:33:39;;;;;;;;;5.00;5.00;;;;;35.12;27.36;100574.28;5013177;28;45762;-74
2022/06/23 10:36:28;;;;;;;;;6.00;6.00;;;;;34.84;28.04;100569.91;5016990;28;45563;-73
2022/06/23 10:39:01;;;;;;;;;6.67;6.67;;;;;34.43;28.11;100534.91;5017510;28;45325;-74
2022/06/23 10:41:36;;;;;;;;;8.00;6.00;;;;;34.16;28.23;100508.94;5016022;28;45450;-71
2022/06/23 10:44:21;;;;;;;;;5.33;5.33;;;;;34.23;28.32;100557.38;5018794;28;47633;-74
2022/06/23 10:47:11;;;;;;;;;9.00;9.00;;;;;34.07;28.57;100563.22;4996813;28;45255;-73
2022/06/23 10:50:14;;;;;;;;;6.00;6.00;;;;;33.89;28.54;100558.59;5012073;28;45396;-71
2022/06/23 10:52:45;;;;;;;;;6.33;6.33;;;;;33.55;29.46;100565.22;4996890;28;45502;-73
2022/06/23 10:55:38;;;;;;;;;10.00;9.33;;;;;33.37;30.04;100566.06;5024437;28;45554;-73
2022/06/23 10:58:17;;;;;;;;;8.00;8.00;;;;;33.24;29.97;100561.31;5035646;28;45525;-73
2022/06/23 11:00:51;;;;;;;;;9.33;7.00;;;;;33.05;30.02;100560.50;5040132;28;45573;-70
2022/06/23 11:03:40;;;;;;;;;7.00;7.00;;;;;32.82;30.62;100563.00;5021269;28;45700;-76
2022/06/23 11:06:17;;;;;;;;;6.67;6.00;;;;;32.66;30.75;100561.56;5035114;28;47157;-73
2022/06/23 11:08:48;;;;;;;;;11.33;9.00;;;;;32.51;30.57;100561.75;5035793;28;45305;-72
2022/06/23 11:11:39;;;;;;;;;7.00;7.00;;;;;32.34;30.04;100552.03;5036405;28;45475;-71
2022/06/23 11:14:10;;;;;;;;;6.67;6.67;;;;;31.82;30.69;100494.28;5036572;28;45345;-73
2022/06/23 11:16:57;;;;;;;;;5.00;5.00;;;;;32.09;30.80;100560.56;5035946;28;46001;-71
2022/06/23 11:19:48;;;;;;;;;7.33;6.67;;;;;32.03;30.46;100561.69;5035879;28;45309;-72
2022/06/23 11:22:35;;;;;;;;;5.00;5.00;;;;;31.99;30.61;100558.72;5032730;28;45336;-73
2022/06/23 11:25:18;;;;;;;;;5.00;5.00;;;;;31.96;31.13;100541.97;5034523;28;45553;-73
2022/06/23 11:28:08;;;;;;;;;6.33;6.33;;;;;31.84;31.55;100536.06;5034792;28;46708;-73
2022/06/23 11:31:01;;;;;;;;;6.67;6.67;;;;;31.77;31.82;100539.97;5035787;28;45558;-72
2022/06/23 11:33:47;;;;;;;;;6.67;6.67;;;;;31.72;31.76;100534.53;5036161;28;45515;-75
2022/06/23 11:36:41;;;;;;;;;5.00;5.00;;;;;31.54;31.59;100526.16;5036796;28;45301;-73
2022/06/23 11:39:22;;;;;;;;;8.00;8.00;;;;;31.48;31.67;100544.63;5033292;28;46167;-72
2022/06/23 11:41:50;;;;;;;;;7.67;7.67;;;;;31.44;31.47;100529.81;5054916;28;45542;-71
2022/06/23 11:44:41;;;;;;;;;6.00;5.00;;;;;31.25;31.74;100517.91;5054823;28;45337;-71
2022/06/23 11:47:22;;;;;;;;;4.00;4.00;;;;;30.93;32.40;100510.13;5030946;28;45396;-72
2022/06/23 11:49:53;;;;;;;;;6.00;5.00;;;;;30.86;32.20;100511.28;5039421;28;45635;-72
2022/06/23 11:52:35;;;;;;;;;5.67;5.67;;;;;30.74;32.61;100512.72;5039253;28;45264;-73
2022/06/23 11:55:01;;;;;;;;;8.00;7.00;;;;;30.52;32.92;100521.31;5039194;28;46515;-72
2022/06/23 11:58:11;;;;;;;;;4.00;4.00;;;;;30.24;34.16;100520.06;5039590;28;45456;-71
2022/06/23 12:00:48;;;;;;;;;8.00;8.00;;;;;30.08;34.59;100504.75;5039289;28;46878;-72
2022/06/23 12:03:27;;;;;;;;;6.67;6.00;;;;;29.33;34.72;100404.03;5039538;28;45236;-71
2022/06/23 12:06:19;;;;;;;;;6.00;6.00;;;;;29.94;34.58;100505.31;5040634;28;45546;-71
2022/06/23 12:08:56;;;;;;;;;8.00;8.00;;;;;29.75;34.03;100484.25;5040225;28;45641;-72
2022/06/23 12:11:23;;;;;;;;;6.67;6.67;;;;;29.77;33.74;100491.09;5039395;28;45473;-71
2022/06/23 12:13:49;;;;;;;;;6.33;5.33;;;;;29.56;33.28;100473.88;5038727;28;45202;-71
2022/06/23 12:16:14;;;;;;;;;7.00;7.00;;;;;29.68;33.93;100501.81;5037580;28;45479;-72
2022/06/23 12:18:52;;;;;;;;;7.67;7.67;;;;;29.70;34.27;100487.81;5039053;28;45382;-73
2022/06/23 12:21:42;;;;;;;;;9.33;7.00;;;;;29.60;34.52;100480.44;5038960;28;46414;-73
2022/06/23 12:24:29;;;;;;;;;7.00;5.33;;;;;29.39;34.87;100448.66;5038791;28;45429;-71